sensor_id;sensor_type;location;lat;lon;timestamp;pressure;altitude;pressure_sealevel;temperature;humidity
804;BME280;25687;49.976;8.240;2023-04-07T00:05:06;100095.53;;;5.84;100.00
804;BME280;25687;49.976;8.240;2023-04-07T00:07:32;100103.91;;;5.87;100.00
804;BME280;25687;49.976;8.240;2023-04-07T00:09:57;100102.31;;;5.85;100.00
804;BME280;25687;49.976;8.240;2023-04-07T00:12:22;100098.66;;;5.92;100.00
804;BME280;25687;49.976;8.240;2023-04-07T00:14:47;100101.84;;;5.98;100.00
804;BME280;25687;49.976;8.240;2023-04-07T00:17:13;100096.66;;;6.02;100.00
804;BME280;25687;49.976;8.240;2023-04-07T00:19:38;100091.72;;;5.95;100.00
804;BME280;25687;49.976;8.240;2023-04-07T00:22:03;100088.47;;;5.90;100.00
804;BME280;25687;49.976;8.240;2023-04-07T00:24:28;100090.50;;;5.82;100.00
804;BME280;25687;49.976;8.240;2023-04-07T00:26:54;100081.50;;;5.95;100.00
804;BME280;25687;49.976;8.240;2023-04-07T00:29:20;100074.50;;;6.02;100.00
804;BME280;25687;49.976;8.240;2023-04-07T00:31:46;100077.16;;;5.97;100.00
804;BME280;25687;49.976;8.240;2023-04-07T00:34:11;100074.94;;;5.88;100.00
804;BME280;25687;49.976;8.240;2023-04-07T00:36:36;100072.47;;;5.87;100.00
804;BME280;25687;49.976;8.240;2023-04-07T00:39:01;100068.34;;;5.82;100.00
804;BME280;25687;49.976;8.240;2023-04-07T00:41:27;100067.34;;;5.87;100.00
804;BME280;25687;49.976;8.240;2023-04-07T00:43:52;100067.59;;;5.79;100.00
804;BME280;25687;49.976;8.240;2023-04-07T00:46:21;100056.34;;;5.85;100.00
804;BME280;25687;49.976;8.240;2023-04-07T00:48:48;100052.06;;;5.85;100.00
804;BME280;25687;49.976;8.240;2023-04-07T00:51:13;100050.38;;;5.86;100.00
804;BME280;25687;49.976;8.240;2023-04-07T00:53:39;100051.25;;;5.85;100.00
804;BME280;25687;49.976;8.240;2023-04-07T00:56:05;100047.69;;;5.89;100.00
804;BME280;25687;49.976;8.240;2023-04-07T00:58:30;100047.47;;;5.95;100.00
804;BME280;25687;49.976;8.240;2023-04-07T01:01:07;100047.47;;;5.95;100.00
804;BME280;25687;49.976;8.240;2023-04-07T01:03:38;100040.41;;;6.03;100.00
804;BME280;25687;49.976;8.240;2023-04-07T01:06:09;100045.19;;;5.87;100.00
804;BME280;25687;49.976;8.240;2023-04-07T01:11:40;100037.03;;;5.77;100.00
804;BME280;25687;49.976;8.240;2023-04-07T01:14:08;100023.22;;;5.83;100.00
804;BME280;25687;49.976;8.240;2023-04-07T01:16:41;100024.56;;;5.93;100.00
804;BME280;25687;49.976;8.240;2023-04-07T01:19:14;100024.22;;;6.03;100.00
804;BME280;25687;49.976;8.240;2023-04-07T01:21:43;100026.53;;;6.10;100.00
804;BME280;25687;49.976;8.240;2023-04-07T01:24:16;100019.63;;;6.12;100.00
804;BME280;25687;49.976;8.240;2023-04-07T01:26:45;100019.53;;;6.16;100.00
804;BME280;25687;49.976;8.240;2023-04-07T01:31:57;100012.97;;;6.08;100.00
804;BME280;25687;49.976;8.240;2023-04-07T01:34:25;100005.59;;;6.01;100.00
804;BME280;25687;49.976;8.240;2023-04-07T01:36:53;100002.19;;;6.00;100.00
804;BME280;25687;49.976;8.240;2023-04-07T01:39:20;99998.06;;;5.96;100.00
804;BME280;25687;49.976;8.240;2023-04-07T01:41:46;100000.44;;;6.02;100.00
804;BME280;25687;49.976;8.240;2023-04-07T01:44:13;100002.31;;;5.97;100.00
804;BME280;25687;49.976;8.240;2023-04-07T01:46:39;100001.31;;;6.01;100.00
804;BME280;25687;49.976;8.240;2023-04-07T01:49:05;99998.91;;;5.96;100.00
804;BME280;25687;49.976;8.240;2023-04-07T01:51:32;99997.47;;;5.89;100.00
804;BME280;25687;49.976;8.240;2023-04-07T01:53:58;100002.31;;;5.97;100.00
804;BME280;25687;49.976;8.240;2023-04-07T01:56:25;99995.97;;;6.07;100.00
804;BME280;25687;49.976;8.240;2023-04-07T01:58:51;99995.75;;;6.13;100.00
804;BME280;25687;49.976;8.240;2023-04-07T02:01:16;99996.22;;;6.01;100.00
804;BME280;25687;49.976;8.240;2023-04-07T02:04:10;99991.31;;;5.95;100.00
804;BME280;25687;49.976;8.240;2023-04-07T02:06:41;99988.44;;;6.04;100.00
804;BME280;25687;49.976;8.240;2023-04-07T02:09:10;99993.13;;;5.91;100.00
804;BME280;25687;49.976;8.240;2023-04-07T02:11:38;99988.31;;;5.84;100.00
804;BME280;25687;49.976;8.240;2023-04-07T02:14:06;99984.53;;;5.94;100.00
804;BME280;25687;49.976;8.240;2023-04-07T02:16:34;99980.81;;;6.03;100.00
804;BME280;25687;49.976;8.240;2023-04-07T02:19:00;99983.63;;;5.95;100.00
804;BME280;25687;49.976;8.240;2023-04-07T02:21:27;99978.91;;;5.84;100.00
804;BME280;25687;49.976;8.240;2023-04-07T02:23:55;99986.13;;;5.96;100.00
804;BME280;25687;49.976;8.240;2023-04-07T02:26:20;99980.13;;;5.97;100.00
804;BME280;25687;49.976;8.240;2023-04-07T02:28:45;99982.88;;;6.17;100.00
804;BME280;25687;49.976;8.240;2023-04-07T02:31:11;99982.09;;;5.91;100.00
804;BME280;25687;49.976;8.240;2023-04-07T02:33:37;99974.59;;;5.86;100.00
804;BME280;25687;49.976;8.240;2023-04-07T02:36:03;99967.38;;;5.97;100.00
804;BME280;25687;49.976;8.240;2023-04-07T02:38:28;99975.03;;;5.97;100.00
804;BME280;25687;49.976;8.240;2023-04-07T02:40:53;99979.88;;;6.05;100.00
804;BME280;25687;49.976;8.240;2023-04-07T02:43:19;99966.06;;;6.11;100.00
804;BME280;25687;49.976;8.240;2023-04-07T02:45:45;99974.72;;;6.07;100.00
804;BME280;25687;49.976;8.240;2023-04-07T02:48:10;99976.56;;;6.03;100.00
804;BME280;25687;49.976;8.240;2023-04-07T02:50:35;99977.28;;;6.07;100.00
804;BME280;25687;49.976;8.240;2023-04-07T02:53:01;99981.03;;;5.96;100.00
804;BME280;25687;49.976;8.240;2023-04-07T02:55:26;99974.19;;;5.98;100.00
804;BME280;25687;49.976;8.240;2023-04-07T02:57:51;99971.81;;;5.92;100.00
804;BME280;25687;49.976;8.240;2023-04-07T03:00:16;99972.59;;;5.94;100.00
804;BME280;25687;49.976;8.240;2023-04-07T03:02:42;99971.25;;;5.84;100.00
804;BME280;25687;49.976;8.240;2023-04-07T03:05:07;99968.63;;;5.87;100.00
804;BME280;25687;49.976;8.240;2023-04-07T03:07:33;99964.25;;;5.67;100.00
804;BME280;25687;49.976;8.240;2023-04-07T03:09:58;99969.66;;;5.81;100.00
804;BME280;25687;49.976;8.240;2023-04-07T03:12:23;99962.94;;;5.79;100.00
804;BME280;25687;49.976;8.240;2023-04-07T03:14:49;99961.25;;;5.79;100.00
804;BME280;25687;49.976;8.240;2023-04-07T03:17:14;99954.59;;;5.97;100.00
804;BME280;25687;49.976;8.240;2023-04-07T03:19:39;99956.13;;;6.03;100.00
804;BME280;25687;49.976;8.240;2023-04-07T03:22:05;99959.34;;;6.08;100.00
804;BME280;25687;49.976;8.240;2023-04-07T03:24:30;99954.91;;;5.90;100.00
804;BME280;25687;49.976;8.240;2023-04-07T03:26:55;99954.66;;;5.96;100.00
804;BME280;25687;49.976;8.240;2023-04-07T03:29:21;99950.25;;;6.01;100.00
804;BME280;25687;49.976;8.240;2023-04-07T03:31:46;99949.28;;;6.04;100.00
804;BME280;25687;49.976;8.240;2023-04-07T03:34:12;99949.91;;;6.10;100.00
804;BME280;25687;49.976;8.240;2023-04-07T03:36:37;99947.47;;;6.07;100.00
804;BME280;25687;49.976;8.240;2023-04-07T03:39:02;99938.53;;;6.18;100.00
804;BME280;25687;49.976;8.240;2023-04-07T03:41:28;99946.22;;;6.18;100.00
804;BME280;25687;49.976;8.240;2023-04-07T03:43:53;99949.69;;;6.17;100.00
804;BME280;25687;49.976;8.240;2023-04-07T03:46:19;99941.22;;;6.14;100.00
804;BME280;25687;49.976;8.240;2023-04-07T03:48:45;99947.94;;;6.17;100.00
804;BME280;25687;49.976;8.240;2023-04-07T03:51:11;99941.53;;;6.29;100.00
804;BME280;25687;49.976;8.240;2023-04-07T03:53:36;99945.97;;;6.24;100.00
804;BME280;25687;49.976;8.240;2023-04-07T03:56:02;99943.88;;;6.34;100.00
804;BME280;25687;49.976;8.240;2023-04-07T03:58:27;99942.13;;;6.36;100.00
804;BME280;25687;49.976;8.240;2023-04-07T04:00:52;99942.00;;;6.39;100.00
804;BME280;25687;49.976;8.240;2023-04-07T04:03:18;99932.47;;;6.42;100.00
804;BME280;25687;49.976;8.240;2023-04-07T04:05:43;99936.94;;;6.37;100.00
804;BME280;25687;49.976;8.240;2023-04-07T04:08:08;99936.66;;;6.45;100.00
804;BME280;25687;49.976;8.240;2023-04-07T04:10:33;99935.28;;;6.36;100.00
804;BME280;25687;49.976;8.240;2023-04-07T04:12:59;99925.72;;;6.41;100.00
804;BME280;25687;49.976;8.240;2023-04-07T04:15:25;99933.91;;;6.27;100.00
804;BME280;25687;49.976;8.240;2023-04-07T04:17:50;99934.34;;;6.17;100.00
804;BME280;25687;49.976;8.240;2023-04-07T04:20:16;99933.16;;;6.03;100.00
804;BME280;25687;49.976;8.240;2023-04-07T04:22:41;99927.75;;;6.11;100.00
804;BME280;25687;49.976;8.240;2023-04-07T04:25:06;99931.75;;;5.94;100.00
804;BME280;25687;49.976;8.240;2023-04-07T04:27:32;99924.38;;;6.10;100.00
804;BME280;25687;49.976;8.240;2023-04-07T04:29:57;99924.72;;;6.23;100.00
804;BME280;25687;49.976;8.240;2023-04-07T04:32:23;99931.78;;;6.39;100.00
804;BME280;25687;49.976;8.240;2023-04-07T04:34:48;99928.81;;;6.27;100.00
804;BME280;25687;49.976;8.240;2023-04-07T04:37:13;99931.56;;;6.23;100.00
804;BME280;25687;49.976;8.240;2023-04-07T04:39:38;99934.94;;;6.23;100.00
804;BME280;25687;49.976;8.240;2023-04-07T04:42:04;99942.06;;;6.15;100.00
804;BME280;25687;49.976;8.240;2023-04-07T04:44:30;99942.59;;;6.23;100.00
804;BME280;25687;49.976;8.240;2023-04-07T04:46:55;99939.56;;;6.13;100.00
804;BME280;25687;49.976;8.240;2023-04-07T04:49:21;99936.66;;;6.23;100.00
804;BME280;25687;49.976;8.240;2023-04-07T04:51:46;99942.06;;;6.15;100.00
804;BME280;25687;49.976;8.240;2023-04-07T04:54:12;99948.19;;;6.11;100.00
804;BME280;25687;49.976;8.240;2023-04-07T04:56:37;99949.50;;;5.97;100.00
804;BME280;25687;49.976;8.240;2023-04-07T04:59:03;99950.19;;;6.03;100.00
804;BME280;25687;49.976;8.240;2023-04-07T05:01:29;99948.00;;;6.16;100.00
804;BME280;25687;49.976;8.240;2023-04-07T05:03:54;99957.50;;;6.12;100.00
804;BME280;25687;49.976;8.240;2023-04-07T05:06:19;99956.25;;;6.22;100.00
804;BME280;25687;49.976;8.240;2023-04-07T05:08:45;99958.63;;;6.27;100.00
804;BME280;25687;49.976;8.240;2023-04-07T05:11:11;99951.75;;;6.29;100.00
804;BME280;25687;49.976;8.240;2023-04-07T05:13:36;99953.34;;;6.32;100.00
804;BME280;25687;49.976;8.240;2023-04-07T05:16:01;99951.16;;;6.22;100.00
804;BME280;25687;49.976;8.240;2023-04-07T05:18:27;99955.53;;;6.41;100.00
804;BME280;25687;49.976;8.240;2023-04-07T05:20:52;99945.72;;;6.52;100.00
804;BME280;25687;49.976;8.240;2023-04-07T05:23:17;99950.78;;;6.54;100.00
804;BME280;25687;49.976;8.240;2023-04-07T05:25:42;99950.72;;;6.55;100.00
804;BME280;25687;49.976;8.240;2023-04-07T05:28:08;99954.06;;;6.57;100.00
804;BME280;25687;49.976;8.240;2023-04-07T05:30:33;99954.72;;;6.40;100.00
804;BME280;25687;49.976;8.240;2023-04-07T05:32:58;99950.06;;;6.50;100.00
804;BME280;25687;49.976;8.240;2023-04-07T05:35:23;99954.97;;;6.55;100.00
804;BME280;25687;49.976;8.240;2023-04-07T05:37:49;99951.19;;;6.65;100.00
804;BME280;25687;49.976;8.240;2023-04-07T05:40:14;99950.59;;;6.79;100.00
804;BME280;25687;49.976;8.240;2023-04-07T05:42:40;99949.13;;;6.73;100.00
804;BME280;25687;49.976;8.240;2023-04-07T05:45:07;99946.91;;;6.86;100.00
804;BME280;25687;49.976;8.240;2023-04-07T05:47:32;99952.91;;;6.85;100.00
804;BME280;25687;49.976;8.240;2023-04-07T05:49:57;99952.19;;;6.82;100.00
804;BME280;25687;49.976;8.240;2023-04-07T05:52:23;99948.34;;;6.92;100.00
804;BME280;25687;49.976;8.240;2023-04-07T05:54:48;99949.72;;;6.80;100.00
804;BME280;25687;49.976;8.240;2023-04-07T05:57:13;99944.53;;;7.02;100.00
804;BME280;25687;49.976;8.240;2023-04-07T05:59:38;99946.50;;;6.95;100.00
804;BME280;25687;49.976;8.240;2023-04-07T06:02:04;99946.41;;;6.99;100.00
804;BME280;25687;49.976;8.240;2023-04-07T06:04:29;99955.31;;;7.09;100.00
804;BME280;25687;49.976;8.240;2023-04-07T06:06:55;99960.06;;;7.18;100.00
804;BME280;25687;49.976;8.240;2023-04-07T06:09:21;99950.59;;;7.20;100.00
804;BME280;25687;49.976;8.240;2023-04-07T06:11:46;99951.28;;;7.24;100.00
804;BME280;25687;49.976;8.240;2023-04-07T06:14:12;99952.41;;;7.18;100.00
804;BME280;25687;49.976;8.240;2023-04-07T06:16:37;99948.91;;;7.19;100.00
804;BME280;25687;49.976;8.240;2023-04-07T06:19:02;99958.25;;;7.20;100.00
804;BME280;25687;49.976;8.240;2023-04-07T06:21:27;99960.00;;;7.20;100.00
804;BME280;25687;49.976;8.240;2023-04-07T06:23:53;99958.00;;;7.26;100.00
804;BME280;25687;49.976;8.240;2023-04-07T06:26:18;99961.13;;;7.33;100.00
804;BME280;25687;49.976;8.240;2023-04-07T06:28:43;99960.44;;;7.30;100.00
804;BME280;25687;49.976;8.240;2023-04-07T06:31:09;99962.50;;;7.40;100.00
804;BME280;25687;49.976;8.240;2023-04-07T06:33:35;99959.38;;;7.54;100.00
804;BME280;25687;49.976;8.240;2023-04-07T06:36:00;99956.53;;;7.61;100.00
804;BME280;25687;49.976;8.240;2023-04-07T06:38:25;99957.38;;;7.40;100.00
804;BME280;25687;49.976;8.240;2023-04-07T06:40:51;99960.91;;;7.38;100.00
804;BME280;25687;49.976;8.240;2023-04-07T06:43:16;99958.78;;;7.48;100.00
804;BME280;25687;49.976;8.240;2023-04-07T06:45:41;99966.00;;;7.58;100.00
804;BME280;25687;49.976;8.240;2023-04-07T06:48:07;99962.69;;;7.75;100.00
804;BME280;25687;49.976;8.240;2023-04-07T06:50:32;99960.47;;;7.87;100.00
804;BME280;25687;49.976;8.240;2023-04-07T06:52:57;99963.63;;;8.11;100.00
804;BME280;25687;49.976;8.240;2023-04-07T06:55:22;99964.72;;;8.24;100.00
804;BME280;25687;49.976;8.240;2023-04-07T06:57:48;99962.56;;;8.34;100.00
804;BME280;25687;49.976;8.240;2023-04-07T07:00:16;99959.56;;;8.44;100.00
804;BME280;25687;49.976;8.240;2023-04-07T07:02:42;99959.84;;;8.20;100.00
804;BME280;25687;49.976;8.240;2023-04-07T07:05:07;99957.28;;;8.37;100.00
804;BME280;25687;49.976;8.240;2023-04-07T07:07:32;99960.00;;;8.53;100.00
804;BME280;25687;49.976;8.240;2023-04-07T07:09:58;99955.47;;;8.76;100.00
804;BME280;25687;49.976;8.240;2023-04-07T07:12:23;99954.94;;;8.87;100.00
804;BME280;25687;49.976;8.240;2023-04-07T07:14:48;99960.13;;;9.03;100.00
804;BME280;25687;49.976;8.240;2023-04-07T07:17:13;99960.50;;;8.78;100.00
804;BME280;25687;49.976;8.240;2023-04-07T07:19:38;99959.00;;;8.91;100.00
804;BME280;25687;49.976;8.240;2023-04-07T07:22:04;99960.13;;;9.03;100.00
804;BME280;25687;49.976;8.240;2023-04-07T07:24:30;99954.56;;;8.77;100.00
804;BME280;25687;49.976;8.240;2023-04-07T07:26:58;99959.00;;;8.91;100.00
804;BME280;25687;49.976;8.240;2023-04-07T07:29:23;99962.56;;;8.88;100.00
804;BME280;25687;49.976;8.240;2023-04-07T07:31:49;99961.09;;;8.83;100.00
804;BME280;25687;49.976;8.240;2023-04-07T07:34:14;99962.84;;;9.00;100.00
804;BME280;25687;49.976;8.240;2023-04-07T07:36:39;99969.19;;;8.93;100.00
804;BME280;25687;49.976;8.240;2023-04-07T07:39:05;99969.69;;;8.64;100.00
804;BME280;25687;49.976;8.240;2023-04-07T07:41:31;99965.94;;;8.71;100.00
804;BME280;25687;49.976;8.240;2023-04-07T07:43:56;99974.00;;;8.81;100.00
804;BME280;25687;49.976;8.240;2023-04-07T07:46:22;99973.63;;;9.07;100.00
804;BME280;25687;49.976;8.240;2023-04-07T07:48:49;99980.22;;;8.95;100.00
804;BME280;25687;49.976;8.240;2023-04-07T07:51:15;99974.53;;;8.88;100.00
804;BME280;25687;49.976;8.240;2023-04-07T07:53:40;99978.31;;;8.98;100.00
804;BME280;25687;49.976;8.240;2023-04-07T07:56:05;99984.66;;;8.91;100.00
804;BME280;25687;49.976;8.240;2023-04-07T07:58:31;99983.06;;;8.88;100.00
804;BME280;25687;49.976;8.240;2023-04-07T08:00:56;99984.56;;;9.10;100.00
804;BME280;25687;49.976;8.240;2023-04-07T08:03:21;99991.38;;;8.94;100.00
804;BME280;25687;49.976;8.240;2023-04-07T08:05:47;99992.50;;;8.88;100.00
804;BME280;25687;49.976;8.240;2023-04-07T08:08:13;99994.75;;;8.94;100.00
804;BME280;25687;49.976;8.240;2023-04-07T08:10:38;100001.63;;;9.11;100.00
804;BME280;25687;49.976;8.240;2023-04-07T08:13:03;100000.00;;;9.26;100.00
804;BME280;25687;49.976;8.240;2023-04-07T08:15:29;99997.38;;;9.10;100.00
804;BME280;25687;49.976;8.240;2023-04-07T08:17:54;100000.88;;;9.27;100.00
804;BME280;25687;49.976;8.240;2023-04-07T08:20:20;100006.31;;;9.54;100.00
804;BME280;25687;49.976;8.240;2023-04-07T08:22:45;100000.47;;;9.84;100.00
804;BME280;25687;49.976;8.240;2023-04-07T08:25:11;100001.59;;;9.62;100.00
804;BME280;25687;49.976;8.240;2023-04-07T08:27:36;100007.84;;;9.41;100.00
804;BME280;25687;49.976;8.240;2023-04-07T08:30:03;100007.38;;;9.50;100.00
804;BME280;25687;49.976;8.240;2023-04-07T08:32:35;100005.72;;;9.49;100.00
804;BME280;25687;49.976;8.240;2023-04-07T08:35:01;100005.81;;;9.63;100.00
804;BME280;25687;49.976;8.240;2023-04-07T08:37:26;100002.78;;;10.05;100.00
804;BME280;25687;49.976;8.240;2023-04-07T08:39:51;100003.31;;;10.27;100.00
804;BME280;25687;49.976;8.240;2023-04-07T08:42:18;99999.06;;;10.58;100.00
804;BME280;25687;49.976;8.240;2023-04-07T08:44:46;100005.63;;;10.48;100.00
804;BME280;25687;49.976;8.240;2023-04-07T08:47:14;99999.25;;;10.39;100.00
804;BME280;25687;49.976;8.240;2023-04-07T08:49:43;100003.97;;;10.31;100.00
804;BME280;25687;49.976;8.240;2023-04-07T08:52:10;100000.75;;;10.11;100.00
804;BME280;25687;49.976;8.240;2023-04-07T08:54:39;100011.03;;;10.27;100.00
804;BME280;25687;49.976;8.240;2023-04-07T08:57:04;100008.50;;;10.58;100.00
804;BME280;25687;49.976;8.240;2023-04-07T08:59:32;100003.88;;;11.09;100.00
804;BME280;25687;49.976;8.240;2023-04-07T09:01:59;100002.91;;;11.41;100.00
804;BME280;25687;49.976;8.240;2023-04-07T09:04:25;100013.19;;;11.84;100.00
804;BME280;25687;49.976;8.240;2023-04-07T09:06:51;100015.50;;;11.74;100.00
804;BME280;25687;49.976;8.240;2023-04-07T09:09:17;100012.56;;;11.66;100.00
804;BME280;25687;49.976;8.240;2023-04-07T09:11:42;100013.94;;;11.72;100.00
804;BME280;25687;49.976;8.240;2023-04-07T09:14:07;100011.19;;;11.75;100.00
804;BME280;25687;49.976;8.240;2023-04-07T09:16:33;100012.84;;;11.76;100.00
804;BME280;25687;49.976;8.240;2023-04-07T09:18:59;100009.06;;;11.96;100.00
804;BME280;25687;49.976;8.240;2023-04-07T09:21:25;100016.06;;;11.79;100.00
804;BME280;25687;49.976;8.240;2023-04-07T09:23:51;100015.03;;;11.97;100.00
804;BME280;25687;49.976;8.240;2023-04-07T09:28:45;100019.34;;;12.10;100.00
804;BME280;25687;49.976;8.240;2023-04-07T09:31:11;100022.13;;;11.64;100.00
804;BME280;25687;49.976;8.240;2023-04-07T09:33:37;100024.22;;;11.28;100.00
804;BME280;25687;49.976;8.240;2023-04-07T09:36:03;100027.22;;;11.06;100.00
804;BME280;25687;49.976;8.240;2023-04-07T09:38:38;100021.88;;;10.95;100.00
804;BME280;25687;49.976;8.240;2023-04-07T09:43:34;100024.88;;;10.25;100.00
804;BME280;25687;49.976;8.240;2023-04-07T09:48:38;100029.25;;;10.71;100.00
804;BME280;25687;49.976;8.240;2023-04-07T09:51:11;100031.03;;;11.29;100.00
804;BME280;25687;49.976;8.240;2023-04-07T09:53:51;100024.63;;;11.66;100.00
804;BME280;25687;49.976;8.240;2023-04-07T09:56:18;100034.34;;;11.89;100.00
804;BME280;25687;49.976;8.240;2023-04-07T09:58:47;100023.50;;;12.13;100.00
804;BME280;25687;49.976;8.240;2023-04-07T10:01:14;100027.66;;;11.72;100.00
804;BME280;25687;49.976;8.240;2023-04-07T10:03:41;100034.00;;;11.52;100.00
804;BME280;25687;49.976;8.240;2023-04-07T10:06:07;100028.66;;;11.41;100.00
804;BME280;25687;49.976;8.240;2023-04-07T10:08:35;100036.75;;;11.49;100.00
804;BME280;25687;49.976;8.240;2023-04-07T10:11:02;100030.44;;;11.55;100.00
804;BME280;25687;49.976;8.240;2023-04-07T10:13:29;100031.34;;;11.54;100.00
804;BME280;25687;49.976;8.240;2023-04-07T10:15:55;100037.84;;;11.30;100.00
804;BME280;25687;49.976;8.240;2023-04-07T10:18:22;100042.44;;;11.25;100.00
804;BME280;25687;49.976;8.240;2023-04-07T10:20:51;100041.63;;;11.39;100.00
804;BME280;25687;49.976;8.240;2023-04-07T10:23:22;100039.31;;;11.35;100.00
804;BME280;25687;49.976;8.240;2023-04-07T10:25:50;100043.47;;;11.37;100.00
804;BME280;25687;49.976;8.240;2023-04-07T10:28:17;100048.16;;;11.30;100.00
804;BME280;25687;49.976;8.240;2023-04-07T10:30:46;100047.94;;;11.34;100.00
804;BME280;25687;49.976;8.240;2023-04-07T10:33:12;100053.16;;;11.03;100.00
804;BME280;25687;49.976;8.240;2023-04-07T10:36:01;100047.59;;;10.95;100.00
804;BME280;25687;49.976;8.240;2023-04-07T10:38:27;100056.97;;;10.33;100.00
804;BME280;25687;49.976;8.240;2023-04-07T10:40:53;100063.78;;;10.34;100.00
804;BME280;25687;49.976;8.240;2023-04-07T10:43:39;100061.81;;;10.40;100.00
804;BME280;25687;49.976;8.240;2023-04-07T10:46:05;100064.63;;;10.51;100.00
804;BME280;25687;49.976;8.240;2023-04-07T10:48:31;100060.88;;;10.57;100.00
804;BME280;25687;49.976;8.240;2023-04-07T10:53:28;100057.03;;;11.25;100.00
804;BME280;25687;49.976;8.240;2023-04-07T10:55:53;100060.22;;;11.30;100.00
804;BME280;25687;49.976;8.240;2023-04-07T10:58:27;100059.41;;;11.73;100.00
804;BME280;25687;49.976;8.240;2023-04-07T11:03:20;100067.72;;;12.07;100.00
804;BME280;25687;49.976;8.240;2023-04-07T11:05:46;100067.50;;;11.67;100.00
804;BME280;25687;49.976;8.240;2023-04-07T11:08:12;100063.91;;;11.40;100.00
804;BME280;25687;49.976;8.240;2023-04-07T11:10:37;100068.19;;;11.25;100.00
804;BME280;25687;49.976;8.240;2023-04-07T11:13:06;100061.41;;;11.53;100.00
804;BME280;25687;49.976;8.240;2023-04-07T11:15:34;100067.22;;;11.57;100.00
804;BME280;25687;49.976;8.240;2023-04-07T11:18:16;100061.78;;;11.61;100.00
804;BME280;25687;49.976;8.240;2023-04-07T11:20:54;100070.19;;;11.79;100.00
804;BME280;25687;49.976;8.240;2023-04-07T11:23:22;100063.00;;;11.85;100.00
804;BME280;25687;49.976;8.240;2023-04-07T11:25:50;100070.06;;;11.95;100.00
804;BME280;25687;49.976;8.240;2023-04-07T11:28:15;100064.81;;;12.26;100.00
804;BME280;25687;49.976;8.240;2023-04-07T11:30:47;100066.66;;;11.81;100.00
804;BME280;25687;49.976;8.240;2023-04-07T11:33:15;100071.22;;;12.06;100.00
804;BME280;25687;49.976;8.240;2023-04-07T11:35:51;100065.56;;;12.28;100.00
804;BME280;25687;49.976;8.240;2023-04-07T11:38:17;100074.63;;;12.75;100.00
804;BME280;25687;49.976;8.240;2023-04-07T11:40:43;100075.66;;;12.73;100.00
804;BME280;25687;49.976;8.240;2023-04-07T11:43:25;100064.03;;;12.38;100.00
804;BME280;25687;49.976;8.240;2023-04-07T11:46:14;100082.72;;;12.15;100.00
804;BME280;25687;49.976;8.240;2023-04-07T11:48:41;100081.91;;;12.00;100.00
804;BME280;25687;49.976;8.240;2023-04-07T11:51:20;100081.31;;;11.80;100.00
804;BME280;25687;49.976;8.240;2023-04-07T11:53:53;100078.53;;;11.83;100.00
804;BME280;25687;49.976;8.240;2023-04-07T11:56:19;100085.53;;;11.95;100.00
804;BME280;25687;49.976;8.240;2023-04-07T11:58:55;100087.00;;;11.85;100.00
804;BME280;25687;49.976;8.240;2023-04-07T12:01:21;100087.84;;;11.71;100.00
804;BME280;25687;49.976;8.240;2023-04-07T12:03:59;100086.69;;;11.32;100.00
804;BME280;25687;49.976;8.240;2023-04-07T12:06:33;100096.03;;;11.19;100.00
804;BME280;25687;49.976;8.240;2023-04-07T12:08:59;100092.22;;;11.10;100.00
804;BME280;25687;49.976;8.240;2023-04-07T12:11:25;100090.28;;;10.99;100.00
804;BME280;25687;49.976;8.240;2023-04-07T12:13:50;100101.06;;;10.90;100.00
804;BME280;25687;49.976;8.240;2023-04-07T12:16:17;100101.66;;;10.95;100.00
804;BME280;25687;49.976;8.240;2023-04-07T12:18:43;100102.50;;;10.79;100.00
804;BME280;25687;49.976;8.240;2023-04-07T12:21:08;100107.13;;;10.89;100.00
804;BME280;25687;49.976;8.240;2023-04-07T12:23:33;100107.75;;;10.78;100.00
804;BME280;25687;49.976;8.240;2023-04-07T12:25:59;100109.66;;;10.90;100.00
804;BME280;25687;49.976;8.240;2023-04-07T12:28:25;100109.13;;;11.00;100.00
804;BME280;25687;49.976;8.240;2023-04-07T12:30:50;100117.44;;;10.89;100.00
804;BME280;25687;49.976;8.240;2023-04-07T12:33:16;100110.84;;;11.15;100.00
804;BME280;25687;49.976;8.240;2023-04-07T12:35:41;100123.41;;;11.05;100.00
804;BME280;25687;49.976;8.240;2023-04-07T12:38:06;100120.19;;;10.86;100.00
804;BME280;25687;49.976;8.240;2023-04-07T12:40:32;100123.09;;;10.79;100.00
804;BME280;25687;49.976;8.240;2023-04-07T12:42:58;100127.44;;;10.47;100.00
804;BME280;25687;49.976;8.240;2023-04-07T12:45:24;100125.69;;;10.63;100.00
804;BME280;25687;49.976;8.240;2023-04-07T12:47:49;100133.47;;;10.46;100.00
804;BME280;25687;49.976;8.240;2023-04-07T12:50:15;100133.72;;;10.41;100.00
804;BME280;25687;49.976;8.240;2023-04-07T12:52:41;100137.53;;;10.50;100.00
804;BME280;25687;49.976;8.240;2023-04-07T12:55:07;100136.00;;;10.30;100.00
804;BME280;25687;49.976;8.240;2023-04-07T12:57:32;100132.25;;;10.36;100.00
804;BME280;25687;49.976;8.240;2023-04-07T12:59:57;100131.47;;;10.51;100.00
804;BME280;25687;49.976;8.240;2023-04-07T13:02:23;100130.25;;;10.58;100.00
804;BME280;25687;49.976;8.240;2023-04-07T13:04:48;100129.00;;;10.65;100.00
804;BME280;25687;49.976;8.240;2023-04-07T13:07:14;100128.59;;;10.73;100.00
804;BME280;25687;49.976;8.240;2023-04-07T13:09:40;100132.72;;;10.76;100.00
804;BME280;25687;49.976;8.240;2023-04-07T13:12:10;100135.97;;;10.63;100.00
804;BME280;25687;49.976;8.240;2023-04-07T13:14:40;100138.97;;;10.56;100.00
804;BME280;25687;49.976;8.240;2023-04-07T13:17:06;100140.13;;;10.66;100.00
804;BME280;25687;49.976;8.240;2023-04-07T13:19:32;100137.28;;;10.39;100.00
804;BME280;25687;49.976;8.240;2023-04-07T13:21:57;100143.75;;;10.46;100.00
804;BME280;25687;49.976;8.240;2023-04-07T13:24:22;100149.75;;;10.62;100.00
804;BME280;25687;49.976;8.240;2023-04-07T13:26:49;100142.50;;;10.37;100.00
804;BME280;25687;49.976;8.240;2023-04-07T13:29:15;100144.28;;;10.35;100.00
804;BME280;25687;49.976;8.240;2023-04-07T13:31:41;100138.13;;;10.55;100.00